Tecumseh, Kansas
Current Conditions -  °F | °C
As of 11:53 AM on Monday 26 Jan 2015 (Local Time) from KTOP Reporting Station
Clear Clear  
Wind Chill: 52°   Ceiling: Unl
Heat Index: 52°   Visibility: 10mi
Dew Point: 33°   Wind: 10mph
Humidity: 49%   Direction: 290°WNW
Pressure: 29.95"   Gusts: NA
Location:  39.05°N, 95.58°W
Report Text: KTOP 261753Z 29009KT 10SM CLR 11/01 A2995 RMK AO2 SLP145 I6000 T01110006 10111 21050 56008
Loading
Personal Weather Stations






























Interactive Weather Map New forecast layout! Learn more

10-Day Weather Forecast

Advertisements
Track Severe Weather on mobile